Time;durP1;ratioP1;P1;durP2;ratioP2;P2;SDS_P1;SDS_P2;PMS_P1;PMS_P2;Temp;Humidity;BMP_temperature;BMP_pressure;BME280_temperature;BME280_humidity;BME280_pressure;Samples;Min_cycle;Max_cycle;Signal;HPM_P1;HPM_P2
2022/05/03 00:06:03;;;;;;;8.50;5.90;;;6.20;99.90;;;;;;5110769;28;20082;-61
2022/05/03 00:08:43;;;;;;;8.70;6.40;;;5.90;99.90;;;;;;5121771;28;20051;-61
2022/05/03 00:11:20;;;;;;;8.27;5.57;;;5.60;99.90;;;;;;5121021;28;20108;-60
2022/05/03 00:14:09;;;;;;;9.48;6.25;;;5.20;99.90;;;;;;5125005;28;20054;-61
2022/05/03 00:16:37;;;;;;;7.68;6.28;;;5.40;99.90;;;;;;5122335;28;20107;-61
2022/05/03 00:19:07;;;;;;;12.90;6.43;;;5.50;99.90;;;;;;5122110;28;20491;-60
2022/05/03 00:21:35;;;;;;;8.48;6.40;;;5.50;99.90;;;;;;5120016;28;20047;-60
2022/05/03 00:24:02;;;;;;;8.15;6.78;;;5.40;99.90;;;;;;5119584;28;20047;-61
2022/05/03 00:26:28;;;;;;;7.28;5.63;;;5.60;99.90;;;;;;5123605;28;20048;-60
2022/05/03 00:28:56;;;;;;;8.15;6.50;;;5.70;99.90;;;;;;5124695;28;20146;-60
2022/05/03 00:31:23;;;;;;;7.65;5.45;;;5.60;99.90;;;;;;5137166;27;20048;-60
2022/05/03 00:33:51;;;;;;;6.78;5.63;;;5.50;99.90;;;;;;5124276;28;20044;-60
2022/05/03 00:36:17;;;;;;;9.93;7.70;;;5.50;99.90;;;;;;5124183;28;20047;-61
2022/05/03 00:38:42;;;;;;;9.65;6.18;;;5.60;99.90;;;;;;5122366;28;20050;-60
2022/05/03 00:41:10;;;;;;;9.88;6.50;;;5.60;99.90;;;;;;5119907;28;20031;-61
2022/05/03 00:43:46;;;;;;;8.90;5.97;;;5.50;99.90;;;;;;5122728;28;20487;-61
2022/05/03 00:46:17;;;;;;;9.23;5.80;;;5.40;99.90;;;;;;5123325;28;20032;-60
2022/05/03 00:49:01;;;;;;;8.25;6.30;;;5.40;99.90;;;;;;5124202;28;20040;-60
2022/05/03 00:52:08;;;;;;;10.13;6.40;;;5.30;99.90;;;;;;5119762;28;20059;-61
2022/05/03 00:54:40;;;;;;;8.23;6.70;;;5.40;99.90;;;;;;5053822;28;20057;-60
2022/05/03 00:57:24;;;;;;;8.20;5.68;;;5.30;99.90;;;;;;5066668;28;20104;-60
2022/05/03 01:00:12;;;;;;;7.00;5.13;;;5.40;99.90;;;;;;5068464;28;20140;-61
2022/05/03 01:03:02;;;;;;;9.00;6.35;;;5.20;99.90;;;;;;5032773;28;20053;-60
2022/05/03 01:05:49;;;;;;;9.07;6.22;;;5.20;99.90;;;;;;5060865;28;20059;-61
2022/05/03 01:08:47;;;;;;;8.95;5.70;;;5.30;99.90;;;;;;5054786;28;20486;-61
2022/05/03 01:11:40;;;;;;;7.85;5.63;;;5.50;99.90;;;;;;5046836;28;20072;-61
2022/05/03 01:14:34;;;;;;;7.75;5.65;;;5.40;99.90;;;;;;5060191;28;20055;-61
2022/05/03 01:17:04;;;;;;;6.68;5.05;;;5.40;99.90;;;;;;5069027;28;20075;-60
2022/05/03 01:19:55;;;;;;;9.35;6.22;;;5.50;99.90;;;;;;5051166;28;20086;-60
2022/05/03 01:22:57;;;;;;;8.85;5.80;;;5.60;99.90;;;;;;5053748;28;20494;-60
2022/05/03 01:25:25;;;;;;;6.90;5.40;;;5.40;99.90;;;;;;5091981;28;20112;-60
2022/05/03 01:28:23;;;;;;;8.85;5.40;;;5.20;99.90;;;;;;5124818;28;20051;-61
2022/05/03 01:30:52;;;;;;;7.22;5.57;;;5.00;99.90;;;;;;5121132;28;20051;-60
2022/05/03 01:33:33;;;;;;;7.85;6.07;;;4.90;99.90;;;;;;5121253;28;20040;-61
2022/05/03 01:36:00;;;;;;;7.78;5.57;;;4.70;99.90;;;;;;5140021;28;20031;-60
2022/05/03 01:38:32;;;;;;;7.15;5.78;;;4.60;99.90;;;;;;5121929;28;20039;-60
2022/05/03 01:41:25;;;;;;;10.10;6.20;;;4.40;99.90;;;;;;5118525;28;20075;-60
2022/05/03 01:44:17;;;;;;;10.48;6.90;;;4.40;99.90;;;;;;5115333;28;20134;-60
2022/05/03 01:46:43;;;;;;;8.80;6.50;;;4.30;99.90;;;;;;5117499;28;20052;-61
2022/05/03 01:52:41;;;;;;;8.80;6.47;;;4.30;99.90;;;;;;5116226;28;20087;-60
2022/05/03 01:55:41;;;;;;;10.85;6.70;;;4.50;99.90;;;;;;5121227;28;20044;-60
2022/05/03 01:58:32;;;;;;;10.47;7.13;;;4.30;99.90;;;;;;5123294;28;20095;-60
2022/05/03 02:01:11;;;;;;;9.45;6.55;;;4.40;99.90;;;;;;5121911;28;20099;-61
2022/05/03 02:03:52;;;;;;;9.75;6.43;;;4.40;99.90;;;;;;5121713;28;20051;-60
2022/05/03 02:06:52;;;;;;;13.48;7.35;;;4.50;99.90;;;;;;5126831;28;20051;-61
2022/05/03 02:09:28;;;;;;;8.80;6.72;;;4.70;99.90;;;;;;5122375;28;20054;-60
2022/05/03 02:11:56;;;;;;;10.32;7.15;;;4.70;99.90;;;;;;5127369;28;20048;-60
2022/05/03 02:14:46;;;;;;;11.63;6.93;;;4.70;99.90;;;;;;5127231;28;20047;-61
2022/05/03 02:17:32;;;;;;;11.67;6.80;;;4.60;99.90;;;;;;5127216;28;20112;-60
2022/05/03 02:20:28;;;;;;;8.68;6.25;;;4.40;99.90;;;;;;5126688;28;20325;-60
2022/05/03 02:23:22;;;;;;;7.68;5.88;;;4.20;99.90;;;;;;5124164;28;20346;-61
2022/05/03 02:26:12;;;;;;;7.95;5.85;;;4.30;99.90;;;;;;5119045;28;20070;-60
2022/05/03 02:28:58;;;;;;;9.85;6.93;;;4.40;99.90;;;;;;5125264;28;20047;-60
2022/05/03 02:31:41;;;;;;;13.27;7.45;;;4.50;99.90;;;;;;5117776;28;20066;-60
2022/05/03 02:34:09;;;;;;;8.75;5.88;;;4.50;99.90;;;;;;5128249;28;20442;-60
2022/05/03 02:36:45;;;;;;;7.40;6.25;;;4.60;99.90;;;;;;5121623;28;20048;-60
2022/05/03 02:39:13;;;;;;;9.23;6.40;;;4.60;99.90;;;;;;5122288;28;20068;-61
2022/05/03 02:41:41;;;;;;;9.25;6.65;;;4.50;99.90;;;;;;5123353;28;20110;-60
2022/05/03 02:44:08;;;;;;;9.50;7.00;;;4.40;99.90;;;;;;5123893;28;20044;-61
2022/05/03 02:46:45;;;;;;;8.75;6.22;;;4.50;99.90;;;;;;5120770;28;20106;-60
2022/05/03 02:49:34;;;;;;;10.98;6.97;;;4.50;99.90;;;;;;5143280;27;20043;-60
2022/05/03 02:52:06;;;;;;;10.48;8.05;;;4.20;99.90;;;;;;5122252;28;20095;-60
2022/05/03 02:54:57;;;;;;;9.93;7.63;;;4.10;99.90;;;;;;5127532;28;20071;-60
2022/05/03 02:57:43;;;;;;;11.18;7.60;;;3.90;99.90;;;;;;5113631;28;20062;-61
2022/05/03 03:03:28;;;;;;;12.20;7.93;;;3.80;99.90;;;;;;5117723;28;20525;-60
2022/05/03 03:05:59;;;;;;;10.95;7.72;;;3.90;99.90;;;;;;5120666;28;20052;-60
2022/05/03 03:08:29;;;;;;;12.15;8.60;;;3.90;99.90;;;;;;5125367;28;20046;-60
2022/05/03 03:11:03;;;;;;;11.85;8.30;;;4.00;99.90;;;;;;5128165;28;20051;-60
2022/05/03 03:13:51;;;;;;;12.57;9.07;;;4.00;99.90;;;;;;5122003;28;20074;-60
2022/05/03 03:16:22;;;;;;;10.82;7.60;;;4.10;99.90;;;;;;5125541;28;20047;-60
2022/05/03 03:18:49;;;;;;;13.57;8.35;;;4.10;99.90;;;;;;5143311;27;20047;-60
2022/05/03 03:21:18;;;;;;;12.93;8.32;;;4.00;99.90;;;;;;5121563;28;20056;-60
2022/05/03 03:23:48;;;;;;;13.88;9.70;;;3.90;99.90;;;;;;5120430;28;20059;-60
2022/05/03 03:26:15;;;;;;;13.55;9.05;;;3.90;99.90;;;;;;5121506;28;20089;-60
2022/05/03 03:28:42;;;;;;;11.95;8.95;;;4.00;99.90;;;;;;5124526;28;20051;-61
2022/05/03 03:31:09;;;;;;;12.60;9.40;;;4.00;99.90;;;;;;5125521;28;20092;-60
2022/05/03 03:33:37;;;;;;;12.05;9.00;;;4.10;99.90;;;;;;5125786;28;20052;-60
2022/05/03 03:36:05;;;;;;;14.55;9.88;;;4.40;99.90;;;;;;5117404;28;20396;-60
2022/05/03 03:38:37;;;;;;;10.98;8.93;;;4.40;99.90;;;;;;5124148;28;20048;-61
2022/05/03 03:41:03;;;;;;;13.35;9.90;;;4.40;99.90;;;;;;5123260;28;20031;-60
2022/05/03 03:43:30;;;;;;;14.35;10.23;;;4.50;99.90;;;;;;5122326;28;20429;-60
2022/05/03 03:45:56;;;;;;;13.27;10.00;;;4.30;99.90;;;;;;5120625;28;20047;-60
2022/05/03 03:48:22;;;;;;;13.57;10.13;;;4.50;99.90;;;;;;5121998;28;20043;-60
2022/05/03 03:50:48;;;;;;;14.55;10.13;;;4.50;99.90;;;;;;5121464;28;20047;-60
2022/05/03 03:53:17;;;;;;;12.55;9.10;;;4.50;99.90;;;;;;5124171;28;20057;-60
2022/05/03 03:55:44;;;;;;;12.35;8.45;;;4.40;99.90;;;;;;5119534;28;20055;-60
2022/05/03 03:58:10;;;;;;;13.52;8.85;;;4.40;99.90;;;;;;5124672;28;20055;-60
2022/05/03 04:00:36;;;;;;;12.20;8.73;;;4.40;99.90;;;;;;5120093;28;20068;-60
2022/05/03 04:03:04;;;;;;;12.73;7.88;;;4.40;99.90;;;;;;5125316;28;20526;-61
2022/05/03 04:05:31;;;;;;;12.18;7.70;;;4.40;99.90;;;;;;5126439;28;20175;-61
2022/05/03 04:07:57;;;;;;;11.98;7.97;;;4.30;99.90;;;;;;5123914;28;20061;-60
2022/05/03 04:10:22;;;;;;;10.95;8.20;;;4.40;99.90;;;;;;5119336;28;20039;-60
2022/05/03 04:12:48;;;;;;;12.05;8.20;;;4.50;99.90;;;;;;5118941;28;20067;-61
2022/05/03 04:15:14;;;;;;;11.30;7.90;;;4.60;99.90;;;;;;5119931;28;20079;-60
2022/05/03 04:17:40;;;;;;;13.00;7.28;;;4.70;99.90;;;;;;5121154;28;20102;-61
2022/05/03 04:20:06;;;;;;;9.63;6.57;;;4.50;99.90;;;;;;5119137;28;20136;-60
2022/05/03 04:22:34;;;;;;;10.75;8.00;;;4.50;99.90;;;;;;5125182;28;20066;-60
2022/05/03 04:25:02;;;;;;;11.98;8.77;;;4.40;99.90;;;;;;5120704;28;20384;-60
2022/05/03 04:27:27;;;;;;;12.80;9.32;;;4.30;99.90;;;;;;5121769;28;20051;-60
2022/05/03 04:29:54;;;;;;;12.73;10.43;;;4.20;99.90;;;;;;5124447;28;20133;-60
2022/05/03 04:32:20;;;;;;;15.50;11.45;;;4.20;99.90;;;;;;5123524;28;20036;-60
2022/05/03 04:34:47;;;;;;;16.25;12.15;;;4.40;99.90;;;;;;5123859;28;20040;-60
2022/05/03 04:37:13;;;;;;;14.13;11.00;;;4.40;99.90;;;;;;5124441;28;20048;-60
2022/05/03 04:39:39;;;;;;;16.92;11.38;;;4.40;99.90;;;;;;5124775;28;20053;-60
2022/05/03 04:42:06;;;;;;;17.63;12.05;;;4.40;99.90;;;;;;5126543;28;20503;-60
2022/05/03 04:44:31;;;;;;;14.32;11.43;;;4.40;99.90;;;;;;5123030;28;20920;-60
2022/05/03 04:46:57;;;;;;;15.82;11.93;;;4.60;99.90;;;;;;5107786;28;20073;-60
2022/05/03 04:49:23;;;;;;;17.00;13.13;;;4.70;99.90;;;;;;5122423;28;20055;-61
2022/05/03 04:51:49;;;;;;;18.63;13.20;;;4.80;99.90;;;;;;5115961;28;20430;-60
2022/05/03 04:54:14;;;;;;;16.67;12.65;;;5.00;99.90;;;;;;5124203;28;20086;-60
2022/05/03 04:56:52;;;;;;;18.88;14.10;;;5.10;99.90;;;;;;5122606;28;20048;-60
2022/05/03 04:59:18;;;;;;;15.38;13.60;;;5.00;99.90;;;;;;5118288;28;20047;-61
2022/05/03 05:01:44;;;;;;;17.10;14.10;;;5.20;99.90;;;;;;5118387;28;20050;-60
2022/05/03 05:04:10;;;;;;;19.92;14.18;;;5.30;99.90;;;;;;5123932;28;20095;-60
2022/05/03 05:06:36;;;;;;;17.63;14.60;;;5.30;99.90;;;;;;5121583;28;20071;-61
2022/05/03 05:09:01;;;;;;;18.13;14.05;;;5.40;99.90;;;;;;5120759;28;20101;-61
2022/05/03 05:11:27;;;;;;;21.10;14.32;;;5.40;99.90;;;;;;5119438;28;20051;-61
2022/05/03 05:13:53;;;;;;;19.13;14.55;;;5.50;99.90;;;;;;5120878;28;20429;-60
2022/05/03 05:16:19;;;;;;;21.15;15.43;;;5.60;99.90;;;;;;5119509;28;20042;-61
2022/05/03 05:18:44;;;;;;;22.98;16.90;;;5.50;99.90;;;;;;5122527;28;20044;-60
2022/05/03 05:21:11;;;;;;;23.27;16.08;;;5.70;99.90;;;;;;5120786;28;20040;-61
2022/05/03 05:23:37;;;;;;;19.75;15.52;;;5.80;99.90;;;;;;5120640;28;20059;-60
2022/05/03 05:26:03;;;;;;;19.98;14.40;;;5.90;99.90;;;;;;5137926;28;20044;-60
2022/05/03 05:28:29;;;;;;;23.50;14.07;;;5.90;99.90;;;;;;5121780;28;20085;-60
2022/05/03 05:30:55;;;;;;;21.10;18.85;;;6.10;99.90;;;;;;5103644;28;20058;-61
2022/05/03 05:33:21;;;;;;;19.58;14.63;;;6.10;99.90;;;;;;5126317;28;20055;-60
2022/05/03 05:35:48;;;;;;;17.73;13.77;;;6.20;99.90;;;;;;5142689;27;20092;-60
2022/05/03 05:38:14;;;;;;;18.98;15.10;;;6.20;99.90;;;;;;5123489;28;20451;-60
2022/05/03 05:40:41;;;;;;;21.42;16.05;;;6.30;99.90;;;;;;5090273;28;20048;-61
2022/05/03 05:43:06;;;;;;;22.60;16.83;;;6.60;99.90;;;;;;5086466;28;20075;-61
2022/05/03 05:45:32;;;;;;;23.08;16.13;;;6.60;99.90;;;;;;5090087;28;20043;-62
2022/05/03 05:47:58;;;;;;;26.10;17.65;;;6.80;99.90;;;;;;5087159;28;20047;-62
2022/05/03 05:50:24;;;;;;;22.40;16.35;;;6.80;99.90;;;;;;5109631;27;20509;-62
2022/05/03 05:55:36;;;;;;;22.35;17.00;;;7.10;99.90;;;;;;5098733;28;20135;-62
2022/05/03 05:58:03;;;;;;;26.17;18.38;;;7.10;99.90;;;;;;5114957;28;20233;-62
2022/05/03 06:00:29;;;;;;;27.35;18.60;;;7.30;99.90;;;;;;5086174;28;20056;-62
2022/05/03 06:02:55;;;;;;;24.17;18.35;;;7.40;99.90;;;;;;5135740;27;20069;-62
2022/05/03 06:05:21;;;;;;;25.52;18.88;;;7.60;99.90;;;;;;5110886;27;20044;-62
2022/05/03 06:07:47;;;;;;;28.77;20.42;;;7.60;99.90;;;;;;5119111;28;20099;-62
2022/05/03 06:10:12;;;;;;;27.67;20.33;;;7.70;99.90;;;;;;5087905;28;20044;-62
2022/05/03 06:12:38;;;;;;;28.75;22.33;;;7.90;99.90;;;;;;5105680;28;20040;-62
2022/05/03 06:15:04;;;;;;;32.17;22.10;;;8.00;99.90;;;;;;5099196;28;20078;-61
2022/05/03 06:17:30;;;;;;;27.83;20.98;;;8.10;99.90;;;;;;5109905;28;20051;-61
2022/05/03 06:19:55;;;;;;;37.13;25.55;;;8.20;99.90;;;;;;5119541;27;20056;-61
2022/05/03 06:22:21;;;;;;;37.00;25.63;;;8.40;99.90;;;;;;5113341;28;20036;-61
2022/05/03 06:24:47;;;;;;;35.70;24.77;;;8.50;99.90;;;;;;5105727;28;20056;-62
2022/05/03 06:27:14;;;;;;;36.95;25.08;;;8.50;99.90;;;;;;5108697;28;20066;-61
2022/05/03 06:29:41;;;;;;;36.38;25.30;;;8.60;99.90;;;;;;5098156;28;20543;-61
2022/05/03 06:32:11;;;;;;;31.10;23.77;;;8.60;99.90;;;;;;5091081;28;20094;-61
2022/05/03 06:34:37;;;;;;;34.83;23.47;;;8.70;99.90;;;;;;5105107;28;20074;-62
2022/05/03 06:37:04;;;;;;;39.03;25.27;;;8.70;99.90;;;;;;5100884;28;20978;-61
2022/05/03 06:39:30;;;;;;;33.28;22.48;;;8.80;99.90;;;;;;5102468;28;20051;-61
2022/05/03 06:41:55;;;;;;;35.33;25.60;;;8.90;99.90;;;;;;5104496;28;20054;-61
2022/05/03 06:44:22;;;;;;;39.88;26.48;;;8.90;99.90;;;;;;5109835;28;20099;-62
2022/05/03 06:46:49;;;;;;;36.92;26.90;;;9.20;99.90;;;;;;5092456;28;20060;-61
2022/05/03 06:49:15;;;;;;;35.47;25.30;;;9.20;99.90;;;;;;5119533;28;20044;-61
2022/05/03 06:51:41;;;;;;;38.63;26.75;;;9.10;99.90;;;;;;5103230;28;20040;-60
2022/05/03 06:54:07;;;;;;;40.17;26.92;;;9.20;99.90;;;;;;5115681;28;20048;-60
2022/05/03 06:56:35;;;;;;;43.08;28.02;;;9.20;99.90;;;;;;5075955;28;20062;-60
2022/05/03 06:59:06;;;;;;;49.83;31.85;;;9.30;99.90;;;;;;5118334;28;20095;-60
2022/05/03 07:01:33;;;;;;;42.05;30.63;;;9.50;99.90;;;;;;5088457;28;20577;-60
2022/05/03 07:03:59;;;;;;;47.33;29.52;;;9.50;99.90;;;;;;5113806;28;20060;-60
2022/05/03 07:06:25;;;;;;;51.40;30.70;;;9.60;99.90;;;;;;5090107;28;20093;-63
2022/05/03 07:08:51;;;;;;;48.72;32.05;;;9.70;99.90;;;;;;5118831;28;20523;-63
2022/05/03 07:11:17;;;;;;;47.65;31.92;;;9.80;99.90;;;;;;5072072;28;20054;-63
2022/05/03 07:13:43;;;;;;;47.88;30.80;;;10.00;99.90;;;;;;5106458;28;20039;-63
2022/05/03 07:16:09;;;;;;;52.28;34.17;;;9.90;99.90;;;;;;5095977;28;20115;-63
2022/05/03 07:24:05;;;;;;;64.07;36.30;;;10.10;99.90;;;;;;5074437;28;20058;-63
2022/05/03 07:26:32;;;;;;;59.80;34.38;;;10.10;99.90;;;;;;5101214;28;20128;-63
2022/05/03 07:28:58;;;;;;;53.90;33.45;;;10.20;99.90;;;;;;5120038;28;20419;-63
2022/05/03 07:31:24;;;;;;;47.92;31.13;;;10.20;99.90;;;;;;5093206;28;20123;-64
2022/05/03 07:33:50;;;;;;;51.30;32.35;;;10.10;99.90;;;;;;5102648;28;20055;-63
2022/05/03 07:36:19;;;;;;;43.72;29.13;;;10.10;99.90;;;;;;5101772;28;20094;-63
2022/05/03 07:38:46;;;;;;;43.00;28.10;;;10.10;99.90;;;;;;5109032;28;20336;-63
2022/05/03 07:41:12;;;;;;;43.72;28.70;;;10.20;99.90;;;;;;5093424;28;20036;-63
2022/05/03 07:43:38;;;;;;;43.33;28.88;;;10.10;99.90;;;;;;5105236;28;20051;-64
2022/05/03 07:46:03;;;;;;;37.50;25.45;;;10.10;99.90;;;;;;5094601;28;20048;-64
2022/05/03 07:48:29;;;;;;;38.35;26.55;;;10.20;99.90;;;;;;5110658;28;20054;-64
2022/05/03 07:50:56;;;;;;;31.27;21.55;;;10.10;99.90;;;;;;5104034;28;20085;-62
2022/05/03 07:53:21;;;;;;;32.72;21.70;;;10.00;99.90;;;;;;5093296;28;20071;-64
2022/05/03 07:55:48;;;;;;;29.60;20.27;;;10.00;99.90;;;;;;5105800;28;20426;-63
2022/05/03 07:58:15;;;;;;;28.73;19.40;;;10.10;99.90;;;;;;5110046;28;20050;-62
2022/05/03 08:00:41;;;;;;;26.80;15.80;;;10.10;99.90;;;;;;5104085;28;20043;-63
2022/05/03 08:03:06;;;;;;;17.65;11.48;;;10.00;99.90;;;;;;5125997;27;20425;-63
2022/05/03 08:05:32;;;;;;;12.77;7.35;;;10.20;99.90;;;;;;5113070;28;20052;-63
2022/05/03 08:07:58;;;;;;;8.45;6.65;;;10.00;99.90;;;;;;5104195;28;20055;-63
2022/05/03 08:10:24;;;;;;;12.23;6.65;;;10.10;99.90;;;;;;5112989;28;20120;-63
2022/05/03 08:12:51;;;;;;;12.10;7.25;;;10.10;99.90;;;;;;5092894;27;20047;-63
2022/05/03 08:15:18;;;;;;;10.05;6.13;;;10.10;99.90;;;;;;5098389;28;20035;-63
2022/05/03 08:17:44;;;;;;;12.55;6.30;;;10.30;99.90;;;;;;5086573;28;20047;-63
2022/05/03 08:20:10;;;;;;;10.93;6.18;;;10.40;99.90;;;;;;5107789;28;20108;-63
2022/05/03 08:22:35;;;;;;;10.20;6.57;;;10.50;99.90;;;;;;5083986;28;20075;-63
2022/05/03 08:25:02;;;;;;;10.23;6.03;;;10.50;99.90;;;;;;5094787;28;20069;-64
2022/05/03 08:27:29;;;;;;;9.50;6.20;;;10.60;99.90;;;;;;5083418;28;20395;-62
2022/05/03 08:29:54;;;;;;;9.95;6.38;;;10.60;99.90;;;;;;5108386;28;20078;-63
2022/05/03 08:32:20;;;;;;;10.98;5.47;;;10.60;99.90;;;;;;5081930;28;20530;-63
2022/05/03 08:34:46;;;;;;;18.50;7.00;;;10.70;99.90;;;;;;5113060;28;20047;-63
2022/05/03 08:42:40;;;;;;;11.35;6.40;;;10.80;99.90;;;;;;5093079;28;20043;-63
2022/05/03 08:45:06;;;;;;;12.38;6.75;;;10.90;99.90;;;;;;5108869;28;20436;-63
2022/05/03 08:47:32;;;;;;;15.27;7.40;;;11.00;99.90;;;;;;5089765;27;20051;-63
2022/05/03 08:50:08;;;;;;;13.20;7.07;;;11.10;99.90;;;;;;5090062;28;20144;-63
2022/05/03 08:52:57;;;;;;;11.15;6.22;;;11.00;99.90;;;;;;5112979;27;20595;-62
2022/05/03 08:55:23;;;;;;;16.55;7.43;;;11.20;99.90;;;;;;5115007;28;20062;-62
2022/05/03 08:57:49;;;;;;;12.20;6.78;;;11.20;99.90;;;;;;5087500;28;20043;-63
2022/05/03 09:00:17;;;;;;;15.38;6.85;;;11.30;99.90;;;;;;5113257;28;20062;-63
2022/05/03 09:02:44;;;;;;;16.50;6.68;;;11.30;99.90;;;;;;5083979;28;20067;-63
2022/05/03 09:05:13;;;;;;;17.80;6.80;;;11.30;99.90;;;;;;5109783;28;20036;-63
2022/05/03 09:07:57;;;;;;;16.45;7.78;;;11.30;99.90;;;;;;5090253;28;20055;-63
2022/05/03 09:10:34;;;;;;;15.85;6.40;;;11.40;99.90;;;;;;5111208;28;20047;-63
2022/05/03 09:13:14;;;;;;;19.27;6.82;;;11.40;99.90;;;;;;5085765;28;20394;-63
2022/05/03 09:15:40;;;;;;;20.83;8.15;;;11.40;99.90;;;;;;5111483;28;20206;-63
2022/05/03 09:18:05;;;;;;;16.60;7.47;;;11.40;99.90;;;;;;5089968;28;20067;-63
2022/05/03 09:26:14;;;;;;;16.73;7.38;;;11.40;99.90;;;;;;5107388;28;20080;-63
2022/05/03 09:28:47;;;;;;;22.25;8.18;;;11.50;99.90;;;;;;5088427;28;20063;-63
2022/05/03 09:31:13;;;;;;;20.90;7.88;;;11.50;99.90;;;;;;5108146;28;20252;-63
2022/05/03 09:33:39;;;;;;;16.42;6.90;;;11.40;99.90;;;;;;5086921;28;20389;-63
2022/05/03 09:36:10;;;;;;;18.52;7.82;;;11.40;99.90;;;;;;5116152;28;20560;-63
2022/05/03 09:38:50;;;;;;;21.85;8.50;;;11.40;99.90;;;;;;5083464;28;20555;-63
2022/05/03 09:41:16;;;;;;;17.85;8.60;;;11.40;99.90;;;;;;5108325;28;20052;-63
2022/05/03 09:44:02;;;;;;;25.48;8.05;;;11.30;99.90;;;;;;5099804;28;20067;-63
2022/05/03 09:46:29;;;;;;;22.98;7.93;;;11.30;99.90;;;;;;5114290;28;20369;-62
2022/05/03 09:48:55;;;;;;;24.17;8.00;;;11.30;99.90;;;;;;5085809;28;20528;-63
2022/05/03 09:51:23;;;;;;;21.95;7.97;;;11.40;99.90;;;;;;5089154;28;20084;-63
2022/05/03 09:53:59;;;;;;;22.23;8.95;;;11.30;99.90;;;;;;5104080;28;20051;-62
2022/05/03 09:56:27;;;;;;;26.30;8.75;;;11.30;99.90;;;;;;5111499;28;20039;-62
2022/05/03 09:58:57;;;;;;;21.27;8.52;;;11.40;99.90;;;;;;5105482;28;20061;-62
2022/05/03 10:01:24;;;;;;;21.50;7.82;;;11.40;99.90;;;;;;5104419;28;20051;-63
2022/05/03 10:03:51;;;;;;;19.10;6.85;;;11.50;99.90;;;;;;5102835;28;20078;-62
2022/05/03 10:06:20;;;;;;;20.45;6.72;;;11.50;99.90;;;;;;5113245;28;20072;-63
2022/05/03 10:08:48;;;;;;;24.20;7.68;;;11.60;99.90;;;;;;5088253;28;20040;-62
2022/05/03 10:11:16;;;;;;;19.85;6.22;;;11.70;99.90;;;;;;5108790;28;20058;-64
2022/05/03 10:13:42;;;;;;;17.33;6.38;;;11.70;99.90;;;;;;5094802;28;20429;-64
2022/05/03 10:21:41;;;;;;;18.77;6.93;;;11.80;99.90;;;;;;5116210;28;20052;-62
2022/05/03 10:24:09;;;;;;;13.07;6.53;;;11.80;99.90;;;;;;5113199;27;20059;-62
2022/05/03 10:27:07;;;;;;;14.50;5.40;;;11.90;99.90;;;;;;5116527;28;20047;-63
2022/05/03 10:29:37;;;;;;;19.20;5.00;;;11.90;99.90;;;;;;5082246;28;20055;-64
2022/05/03 10:32:05;;;;;;;12.02;5.30;;;12.00;99.90;;;;;;5116592;28;20044;-63
2022/05/03 10:34:42;;;;;;;13.18;5.00;;;12.10;99.90;;;;;;5105529;27;20052;-63
2022/05/03 10:37:10;;;;;;;15.63;5.30;;;12.20;99.90;;;;;;5117498;28;20070;-64
2022/05/03 10:39:54;;;;;;;13.90;5.05;;;12.20;99.90;;;;;;5090472;28;20374;-63
2022/05/03 10:42:31;;;;;;;11.00;5.55;;;12.30;99.90;;;;;;5095825;28;20043;-63
2022/05/03 10:45:13;;;;;;;13.63;4.65;;;12.40;99.90;;;;;;5072916;28;20051;-63
2022/05/03 10:47:39;;;;;;;10.07;4.55;;;12.50;99.90;;;;;;5104378;28;20055;-63
2022/05/03 10:50:11;;;;;;;10.27;4.10;;;12.70;99.90;;;;;;5094763;28;20028;-63
2022/05/03 10:52:37;;;;;;;8.85;4.25;;;12.90;99.90;;;;;;5113361;28;20487;-63
2022/05/03 10:55:07;;;;;;;13.52;4.65;;;12.90;99.90;;;;;;5111892;27;20410;-63
2022/05/03 10:58:12;;;;;;;11.65;4.63;;;12.90;99.90;;;;;;5082015;28;20047;-63
2022/05/03 11:01:10;;;;;;;12.88;4.72;;;13.00;99.90;;;;;;5090981;28;20051;-63
2022/05/03 11:03:39;;;;;;;11.10;4.60;;;13.00;99.90;;;;;;5081367;28;20087;-63
2022/05/03 11:06:22;;;;;;;12.15;4.43;;;13.00;99.90;;;;;;5088988;28;20048;-63
2022/05/03 11:11:43;;;;;;;12.60;5.03;;;13.10;99.90;;;;;;5110633;28;20058;-63
2022/05/03 11:14:15;;;;;;;11.07;4.75;;;13.10;99.90;;;;;;5087515;28;20052;-63
2022/05/03 11:16:47;;;;;;;7.53;4.13;;;13.10;99.90;;;;;;5105245;28;20051;-64
2022/05/03 11:19:17;;;;;;;11.75;5.00;;;13.20;99.90;;;;;;5106796;27;20055;-63
2022/05/03 11:21:45;;;;;;;14.07;4.30;;;13.10;99.90;;;;;;5107761;28;20031;-63
2022/05/03 11:24:32;;;;;;;18.88;4.47;;;13.30;99.90;;;;;;5098549;28;20044;-63
2022/05/03 11:27:05;;;;;;;10.93;4.38;;;13.30;99.90;;;;;;5108091;28;20112;-63
2022/05/03 11:29:41;;;;;;;12.07;4.78;;;13.40;99.90;;;;;;5094680;27;20055;-64
2022/05/03 11:32:07;;;;;;;13.55;4.95;;;13.60;99.90;;;;;;5114254;28;20057;-63
2022/05/03 11:34:33;;;;;;;12.60;4.28;;;13.70;99.90;;;;;;5096009;28;20178;-64
2022/05/03 11:37:01;;;;;;;11.65;4.00;;;13.60;99.90;;;;;;5111988;28;20036;-63
2022/05/03 11:39:27;;;;;;;14.85;4.70;;;13.90;99.90;;;;;;5101143;27;20051;-64
2022/05/03 11:41:54;;;;;;;11.95;3.72;;;13.90;99.90;;;;;;5118753;28;20503;-63
2022/05/03 11:44:20;;;;;;;15.18;4.45;;;14.00;99.90;;;;;;5098730;28;20056;-63
2022/05/03 11:46:48;;;;;;;13.27;4.55;;;14.20;99.90;;;;;;5097274;28;20066;-63
2022/05/03 11:49:15;;;;;;;11.68;4.22;;;14.20;99.90;;;;;;5102740;28;20071;-63
2022/05/03 11:57:27;;;;;;;9.98;3.88;;;14.30;99.90;;;;;;5097450;28;20137;-63
2022/05/03 11:59:56;;;;;;;10.15;4.25;;;14.30;99.90;;;;;;5096999;28;20051;-63
2022/05/03 12:02:36;;;;;;;11.70;4.57;;;14.30;99.90;;;;;;5102790;28;20046;-63
2022/05/03 12:05:02;;;;;;;12.65;4.05;;;14.40;99.90;;;;;;5092105;28;20634;-63
2022/05/03 12:07:28;;;;;;;8.95;4.13;;;14.50;99.90;;;;;;5104310;28;20048;-64
2022/05/03 12:09:55;;;;;;;12.98;4.68;;;14.50;99.90;;;;;;5093811;27;20074;-64
2022/05/03 12:12:43;;;;;;;11.05;4.50;;;14.70;99.90;;;;;;5130470;27;20613;-63
2022/05/03 12:15:18;;;;;;;7.35;3.60;;;14.80;99.90;;;;;;5092609;28;20075;-64
2022/05/03 12:18:01;;;;;;;11.32;4.32;;;14.40;99.90;;;;;;5111182;28;20035;-63
2022/05/03 12:20:40;;;;;;;12.10;3.65;;;14.20;99.90;;;;;;5112849;27;20630;-63
2022/05/03 12:23:23;;;;;;;13.02;4.63;;;14.40;99.90;;;;;;5099306;28;20139;-63
2022/05/03 12:25:50;;;;;;;10.85;3.88;;;14.40;99.90;;;;;;5102101;28;20143;-63
2022/05/03 12:28:17;;;;;;;8.18;3.40;;;14.70;99.90;;;;;;5108044;28;20048;-63
2022/05/03 12:30:44;;;;;;;7.72;3.10;;;14.60;99.90;;;;;;5092079;28;20534;-63
2022/05/03 12:33:15;;;;;;;10.50;3.83;;;14.60;99.90;;;;;;5102912;28;20054;-65
2022/05/03 12:35:43;;;;;;;10.82;3.78;;;14.70;99.90;;;;;;5092858;27;20212;-63
2022/05/03 12:38:11;;;;;;;9.80;3.75;;;14.80;99.90;;;;;;5106983;28;20074;-63
2022/05/03 12:40:47;;;;;;;11.80;3.85;;;14.80;99.90;;;;;;5104932;27;20044;-63
2022/05/03 12:43:20;;;;;;;9.85;3.78;;;15.00;99.90;;;;;;5115978;28;20039;-63
2022/05/03 12:46:07;;;;;;;10.93;4.15;;;14.70;99.90;;;;;;5097793;28;20074;-63
2022/05/03 12:48:36;;;;;;;8.15;3.10;;;14.60;99.90;;;;;;5106778;28;20062;-64
2022/05/03 12:51:03;;;;;;;10.60;3.22;;;14.90;99.90;;;;;;5083431;28;20576;-64
2022/05/03 12:53:32;;;;;;;11.50;3.88;;;14.80;99.90;;;;;;5102261;28;20050;-64
2022/05/03 12:58:43;;;;;;;9.68;3.72;;;14.70;99.90;;;;;;5104533;28;20108;-63
2022/05/03 13:01:11;;;;;;;6.82;3.15;;;14.80;99.90;;;;;;5084468;28;20044;-63
2022/05/03 13:03:38;;;;;;;8.63;3.53;;;14.70;99.90;;;;;;5110273;28;20052;-64
2022/05/03 13:06:04;;;;;;;6.47;3.10;;;14.70;99.90;;;;;;5091840;28;20048;-64
2022/05/03 13:08:29;;;;;;;6.07;3.50;;;14.70;99.90;;;;;;5105485;28;20040;-64
2022/05/03 13:10:55;;;;;;;8.77;3.30;;;14.70;99.90;;;;;;5087844;28;20044;-63
2022/05/03 13:13:21;;;;;;;7.75;3.40;;;14.40;99.90;;;;;;5100545;28;20043;-64
2022/05/03 13:15:47;;;;;;;9.20;3.65;;;14.90;99.90;;;;;;5080180;28;20047;-64
2022/05/03 13:18:13;;;;;;;8.88;3.42;;;15.20;99.90;;;;;;5097838;28;20081;-64
2022/05/03 13:20:39;;;;;;;9.55;3.78;;;15.30;99.90;;;;;;5094915;28;20043;-64
2022/05/03 13:23:05;;;;;;;12.02;3.42;;;15.60;99.90;;;;;;5091400;28;20132;-63
2022/05/03 13:25:30;;;;;;;8.65;3.45;;;15.80;99.90;;;;;;5095574;28;20064;-64
2022/05/03 13:27:57;;;;;;;6.80;3.00;;;15.50;99.90;;;;;;5094810;28;20039;-63
2022/05/03 13:30:24;;;;;;;5.13;2.70;;;15.70;99.90;;;;;;5095755;28;20051;-64
2022/05/03 13:32:49;;;;;;;9.63;3.13;;;15.60;99.90;;;;;;5092113;28;20101;-64
2022/05/03 13:40:28;;;;;;;7.68;3.47;;;15.70;99.90;;;;;;5080417;28;20047;-64
2022/05/03 13:40:46;;;;;;;6.85;2.85;;;16.00;99.90;;;;;;5095763;28;20051;-63
2022/05/03 13:43:11;;;;;;;7.50;3.38;;;15.90;99.90;;;;;;5100324;28;20074;-63
2022/05/03 13:45:37;;;;;;;5.72;3.00;;;15.90;99.90;;;;;;5087118;28;20096;-64
2022/05/03 13:48:04;;;;;;;13.15;3.67;;;16.00;99.90;;;;;;5107116;28;20048;-63
2022/05/03 13:50:31;;;;;;;9.95;3.67;;;16.10;99.90;;;;;;5093480;28;20057;-63
2022/05/03 13:52:56;;;;;;;7.15;3.13;;;15.90;99.90;;;;;;5070230;28;20040;-63